Dunn, NC (28334)

12:58 PM EDT on August 04, 2015 (GMT -0400)
C and L Farms | | Change Station
CLOSE
Current Station
Personal Weather Station
Location: Dunn, NC
Elevation: 180 ft
Nearby Weather Stations

Elev 180 ft 35.28 °N, 78.65 °W | Updated 8 minutes ago

Partly Cloudy
Partly Cloudy
93.6 °F
Feels Like 107 °F
N
4.7
Wind Variable Wind from East

Today
High -- | Low -- °F
--% Chance of Precip.
Yesterday
High -- | Low -- °F
Precip. -- in
6:25 AM 8:15 PM
Waning Gibbous, 76% visible
Pressure 29.99 in
Visibility 10.0 miles
Clouds Scattered Clouds 3400 ft
Scattered Clouds 5000 ft
Heat Index 107 °F
Dew Point 76 °F
Humidity 57%
Rainfall 0.00 in
Snow Depth Not available.
UV 9 out of 12
Pollen 4.60 out of 12
Air Quality Not available.
Flu Activity Not available.
METAR KHRJ 041635Z AUTO 13007KT 10SM SCT034 SCT050 32/21 A2999 RMK AO2 T03150208

More Conditions Fewer Conditions

Pressure 29.99 in
Visibility 10.0 miles
Clouds Scattered Clouds 3400 ft
Scattered Clouds 5000 ft
Heat Index 107 °F
Dew Point 76 °F
Humidity 57%
Rainfall 0.00 in
Snow Depth Not available.
UV 9 out of 12
Pollen 4.60 out of 12
Air Quality Not available.
Flu Activity Not available.
METAR KHRJ 041635Z AUTO 13007KT 10SM SCT034 SCT050 32/21 A2999 RMK AO2 T03150208

More Conditions Fewer Conditions

10-Day Weather Forecast

×

Almanac

Astronomy

Aug. 04, 2015 Rise Set
Actual Time
Civil Twilight
Nautical Twilight
Astronomical Twilight
Moon
Length of Visible Light
Length of Day
Tomorrow will be .
, % of the Moon is Illuminated

Today's Extremes

State Highs State Lows

Community

WunderPhotos

Upload Photos

1,843,920 photos uploaded!

WunderBlogs® & News

Nearby

Air Quality

  Air Quality AQ Index Pollutant
Not available.

Snow Depth

Station Depth Elevation

Earthquake Activity

City Distance Mag. Time & Date
Minimum magnitude displayed is 2.5.

Coastal Water Temperatures

Place Temperature

Stations

Nearby Weather Stations

Station Location Temp. Windchill Dew Point Humidity Wind Precip. Elev Updated Type